createdAt,value
2023-02-27T00:01:09.471Z,5.03
2023-02-27T00:02:52.579Z,5.70
2023-02-27T00:04:39.312Z,5.55
2023-02-27T00:06:14.170Z,5.68
2023-02-27T00:07:49.749Z,5.60
2023-02-27T00:09:21.640Z,5.47
2023-02-27T00:10:53.336Z,5.10
2023-02-27T00:12:25.000Z,4.93
2023-02-27T00:13:56.692Z,5.32
2023-02-27T00:15:32.848Z,6.10
2023-02-27T00:17:06.966Z,5.40
2023-02-27T00:18:40.787Z,5.40
2023-02-27T00:20:14.958Z,5.35
2023-02-27T00:21:46.853Z,5.10
2023-02-27T00:23:18.502Z,4.82
2023-02-27T00:24:53.046Z,5.30
2023-02-27T00:26:24.752Z,4.80
2023-02-27T00:27:56.907Z,4.88
2023-02-27T00:29:40.117Z,5.70
2023-02-27T00:31:11.962Z,5.30
2023-02-27T00:32:44.176Z,5.30
2023-02-27T00:34:15.916Z,4.80
2023-02-27T00:35:56.253Z,5.07
2023-02-27T00:37:27.987Z,5.57
2023-02-27T00:38:59.718Z,4.60
2023-02-27T00:40:33.598Z,5.15
2023-02-27T00:42:05.333Z,4.90
2023-02-27T00:43:36.972Z,5.13
2023-02-27T00:45:09.328Z,5.18
2023-02-27T00:46:41.083Z,4.97
2023-02-27T00:48:12.799Z,4.80
2023-02-27T00:49:44.421Z,5.10
2023-02-27T00:51:24.891Z,5.28
2023-02-27T00:52:59.941Z,4.75
2023-02-27T00:54:34.276Z,4.93
2023-02-27T00:56:09.146Z,4.53
2023-02-27T00:57:41.100Z,4.60
2023-02-27T00:59:12.734Z,4.63
2023-02-27T01:00:44.600Z,4.82
2023-02-27T01:02:16.260Z,4.70
2023-02-27T01:03:47.947Z,5.00
2023-02-27T01:05:19.711Z,4.90
2023-02-27T01:06:53.197Z,5.10
2023-02-27T01:08:27.604Z,5.38
2023-02-27T01:09:59.279Z,4.15
2023-02-27T01:11:30.937Z,4.60
2023-02-27T01:13:04.596Z,4.25
2023-02-27T01:14:40.760Z,4.30
2023-02-27T01:16:21.983Z,4.97
2023-02-27T01:18:03.990Z,4.47
2023-02-27T01:19:37.992Z,4.70
2023-02-27T01:21:12.594Z,4.68
2023-02-27T01:22:48.637Z,5.03
2023-02-27T01:24:20.755Z,5.10
2023-02-27T01:25:52.858Z,5.65
2023-02-27T01:27:24.893Z,6.10
2023-02-27T01:29:01.556Z,5.97
2023-02-27T01:30:36.437Z,5.18
2023-02-27T01:32:11.038Z,5.28
2023-02-27T01:33:42.915Z,6.50
2023-02-27T01:35:22.032Z,5.47
2023-02-27T01:37:03.592Z,6.50
2023-02-27T01:38:36.729Z,5.35
2023-02-27T01:40:10.280Z,5.97
2023-02-27T01:41:45.330Z,5.55
2023-02-27T01:43:18.472Z,5.43
2023-02-27T01:45:27.367Z,5.25
2023-02-27T01:47:03.774Z,6.10
2023-02-27T01:48:38.455Z,5.90
2023-02-27T01:50:11.853Z,5.65
2023-02-27T01:51:45.361Z,5.55
2023-02-27T01:53:17.635Z,6.32
2023-02-27T01:54:50.584Z,6.05
2023-02-27T01:56:24.808Z,5.72
2023-02-27T01:57:56.542Z,5.97
2023-02-27T01:59:28.279Z,5.78
2023-02-27T02:00:59.982Z,8.05
2023-02-27T02:02:35.501Z,6.78
2023-02-27T02:04:10.366Z,6.25
2023-02-27T02:05:42.038Z,6.90
2023-02-27T02:07:15.193Z,8.80
2023-02-27T02:08:48.035Z,6.03
2023-02-27T02:10:21.151Z,6.70
2023-02-27T02:11:52.803Z,6.85
2023-02-27T02:13:24.738Z,6.25
2023-02-27T02:14:56.351Z,7.20
2023-02-27T02:16:36.196Z,7.03
2023-02-27T02:18:19.752Z,6.30
2023-02-27T02:20:23.960Z,5.63
2023-02-27T02:22:21.747Z,5.57
2023-02-27T02:24:07.651Z,5.60
2023-02-27T02:26:06.860Z,5.82
2023-02-27T02:27:48.521Z,6.78
2023-02-27T02:29:59.115Z,6.35
2023-02-27T02:31:45.244Z,7.38
2023-02-27T02:35:51.082Z,8.38
2023-02-27T02:37:49.406Z,7.30
2023-02-27T02:39:34.948Z,5.50
2023-02-27T02:41:10.116Z,5.85
2023-02-27T02:42:45.654Z,6.70
2023-02-27T02:44:19.855Z,5.50
2023-02-27T02:45:54.039Z,5.97
2023-02-27T02:47:30.776Z,5.85
2023-02-27T02:49:06.196Z,5.57
2023-02-27T02:50:41.272Z,4.95
2023-02-27T02:52:15.046Z,5.30
2023-02-27T02:53:48.935Z,5.35
2023-02-27T02:55:24.528Z,5.40
2023-02-27T02:56:58.733Z,4.90
2023-02-27T02:58:33.322Z,4.22
2023-02-27T03:00:07.205Z,5.50
2023-02-27T03:01:40.994Z,5.32
2023-02-27T03:03:14.462Z,5.38
2023-02-27T03:04:48.398Z,5.43
2023-02-27T03:06:21.753Z,5.15
2023-02-27T03:07:55.670Z,5.18
2023-02-27T03:09:30.897Z,4.90
2023-02-27T03:11:17.702Z,5.05
2023-02-27T03:12:55.510Z,4.85
2023-02-27T03:14:31.772Z,4.82
2023-02-27T03:16:12.411Z,4.65
2023-02-27T03:17:49.623Z,4.90
2023-02-27T03:19:28.169Z,4.40
2023-02-27T03:21:07.628Z,4.90
2023-02-27T03:22:46.931Z,5.18
2023-02-27T03:24:24.501Z,4.82
2023-02-27T03:26:03.341Z,4.60
2023-02-27T03:27:39.777Z,4.82
2023-02-27T03:29:12.438Z,5.20
2023-02-27T03:30:49.829Z,4.82
2023-02-27T03:32:27.802Z,5.20
2023-02-27T03:34:04.867Z,4.90
2023-02-27T03:35:49.628Z,5.00
2023-02-27T03:37:25.733Z,4.88
2023-02-27T03:39:03.036Z,4.95
2023-02-27T03:40:52.212Z,4.57
2023-02-27T03:42:30.060Z,4.68
2023-02-27T03:44:05.177Z,4.95
2023-02-27T03:45:38.375Z,5.20
2023-02-27T03:47:09.993Z,4.88
2023-02-27T03:48:44.795Z,5.18
2023-02-27T03:50:16.682Z,4.60
2023-02-27T03:51:48.489Z,5.18
2023-02-27T03:53:23.181Z,5.03
2023-02-27T03:54:57.231Z,4.78
2023-02-27T03:56:30.977Z,5.35
2023-02-27T03:58:02.594Z,5.30
2023-02-27T03:59:35.607Z,4.85
2023-02-27T04:01:07.273Z,5.20
2023-02-27T04:02:38.901Z,5.15
2023-02-27T04:04:12.006Z,5.07
2023-02-27T04:05:43.659Z,4.90
2023-02-27T04:07:24.973Z,4.72
2023-02-27T04:09:00.443Z,5.20
2023-02-27T04:10:45.632Z,5.43
2023-02-27T04:12:29.690Z,5.40
2023-02-27T04:14:16.157Z,5.00
2023-02-27T04:16:00.751Z,5.40
2023-02-27T04:17:32.792Z,5.85
2023-02-27T04:19:11.777Z,5.00
2023-02-27T04:20:44.091Z,5.50
2023-02-27T04:22:22.372Z,6.13
2023-02-27T04:23:56.559Z,5.32
2023-02-27T04:25:35.645Z,5.25
2023-02-27T04:27:12.820Z,5.55
2023-02-27T04:28:45.257Z,5.10
2023-02-27T04:30:22.771Z,5.20
2023-02-27T04:31:58.867Z,5.05
2023-02-27T04:33:36.976Z,5.15
2023-02-27T04:35:10.576Z,4.95
2023-02-27T04:36:43.051Z,5.10
2023-02-27T04:38:17.320Z,4.80
2023-02-27T04:39:53.481Z,4.85
2023-02-27T04:41:26.713Z,4.88
2023-02-27T04:42:58.492Z,4.65
2023-02-27T04:44:30.466Z,5.38
2023-02-27T04:46:02.678Z,5.20
2023-02-27T04:47:38.060Z,5.32
2023-02-27T04:49:12.426Z,5.20
2023-02-27T04:50:45.602Z,5.13
2023-02-27T04:52:18.876Z,5.60
2023-02-27T04:53:52.739Z,4.93
2023-02-27T04:55:26.591Z,5.25
2023-02-27T04:57:00.302Z,5.13
2023-02-27T04:58:33.796Z,5.47
2023-02-27T05:00:07.940Z,4.93
2023-02-27T05:01:40.930Z,5.25
2023-02-27T05:03:21.546Z,5.50
2023-02-27T05:04:55.642Z,5.68
2023-02-27T05:06:28.597Z,5.53
2023-02-27T05:08:02.108Z,4.63
2023-02-27T05:09:36.824Z,4.93
2023-02-27T05:11:10.695Z,5.00
2023-02-27T05:12:44.612Z,5.45
2023-02-27T05:14:17.587Z,10.75
2023-02-27T05:15:50.697Z,6.80
2023-02-27T05:17:23.277Z,18.80
2023-02-27T05:18:56.254Z,13.27
2023-02-27T05:20:43.069Z,8.60
2023-02-27T05:22:22.271Z,7.45
2023-02-27T05:23:58.728Z,7.22
2023-02-27T05:25:33.088Z,8.25
2023-02-27T05:27:18.572Z,6.10
2023-02-27T05:28:53.292Z,7.40
2023-02-27T05:30:26.926Z,6.30
2023-02-27T05:32:03.993Z,5.22
2023-02-27T05:33:36.747Z,6.55
2023-02-27T05:35:13.409Z,5.75
2023-02-27T05:36:46.692Z,5.18
2023-02-27T05:38:20.279Z,5.75
2023-02-27T05:39:52.250Z,5.40
2023-02-27T05:41:26.019Z,5.40
2023-02-27T05:43:00.091Z,5.35
2023-02-27T05:44:33.361Z,5.20
2023-02-27T05:46:06.495Z,5.80
2023-02-27T05:47:39.879Z,5.28
2023-02-27T05:49:13.528Z,5.78
2023-02-27T05:50:47.554Z,5.53
2023-02-27T05:52:20.196Z,4.78
2023-02-27T05:53:54.029Z,5.70
2023-02-27T05:55:27.727Z,5.40
2023-02-27T05:56:59.376Z,5.75
2023-02-27T05:58:32.964Z,5.40
2023-02-27T06:00:08.611Z,5.20
2023-02-27T06:01:40.300Z,5.70
2023-02-27T06:03:12.054Z,5.30
2023-02-27T06:04:43.729Z,5.30
2023-02-27T06:06:17.897Z,6.15
2023-02-27T06:07:49.599Z,5.60
2023-02-27T06:09:21.440Z,5.80
2023-02-27T06:10:55.181Z,6.03
2023-02-27T06:12:27.078Z,5.95
2023-02-27T06:13:58.735Z,5.65
2023-02-27T06:15:30.437Z,6.00
2023-02-27T06:17:02.107Z,5.22
2023-02-27T06:18:33.850Z,5.97
2023-02-27T06:20:06.927Z,5.78
2023-02-27T06:21:42.710Z,5.72
2023-02-27T06:23:14.445Z,5.60
2023-02-27T06:24:46.125Z,7.05
2023-02-27T06:26:17.997Z,6.00
2023-02-27T06:27:49.659Z,7.00
2023-02-27T06:29:21.716Z,7.22
2023-02-27T06:30:53.929Z,8.23
2023-02-27T06:32:25.883Z,9.70
2023-02-27T06:33:57.913Z,8.20
2023-02-27T06:35:29.691Z,7.78
2023-02-27T06:37:04.340Z,6.22
2023-02-27T06:38:36.856Z,6.68
2023-02-27T06:40:12.287Z,8.60
2023-02-27T06:41:44.275Z,6.63
2023-02-27T06:43:15.950Z,6.95
2023-02-27T06:44:47.578Z,6.70
2023-02-27T06:46:19.254Z,7.10
2023-02-27T06:47:51.075Z,6.90
2023-02-27T06:49:22.912Z,6.72
2023-02-27T06:50:54.898Z,6.97
2023-02-27T06:52:27.862Z,7.40
2023-02-27T06:53:59.544Z,6.00
2023-02-27T06:55:31.220Z,7.70
2023-02-27T06:57:02.982Z,6.15
2023-02-27T06:58:34.653Z,7.60
2023-02-27T07:00:07.707Z,5.72
2023-02-27T07:01:39.399Z,6.05
2023-02-27T07:03:14.521Z,5.60
2023-02-27T07:04:46.816Z,5.93
2023-02-27T07:06:18.672Z,7.53
2023-02-27T07:07:51.910Z,6.43
2023-02-27T07:09:26.022Z,6.55
2023-02-27T07:10:58.003Z,5.57
2023-02-27T07:12:29.955Z,6.07
2023-02-27T07:14:01.830Z,7.00
2023-02-27T07:15:36.456Z,6.90
2023-02-27T07:17:08.349Z,6.85
2023-02-27T07:18:40.305Z,7.57
2023-02-27T07:20:12.389Z,6.95
2023-02-27T07:21:44.225Z,8.40
2023-02-27T07:23:17.810Z,7.90
2023-02-27T07:24:50.034Z,9.48
2023-02-27T07:26:21.933Z,10.18
2023-02-27T07:27:53.720Z,7.85
2023-02-27T07:29:25.693Z,6.95
2023-02-27T07:31:00.187Z,6.63
2023-02-27T07:32:31.998Z,6.65
2023-02-27T07:34:06.885Z,12.77
2023-02-27T07:35:38.937Z,9.75
2023-02-27T07:37:10.958Z,7.25
2023-02-27T07:38:44.145Z,6.50
2023-02-27T07:40:16.666Z,6.63
2023-02-27T07:41:48.752Z,6.35
2023-02-27T07:47:01.255Z,5.53
2023-02-27T07:56:07.356Z,5.53
2023-02-27T07:57:53.015Z,5.57
2023-02-27T07:59:48.415Z,5.53
2023-02-27T08:07:34.379Z,6.45
2023-02-27T08:09:27.807Z,9.95
2023-02-27T08:11:03.722Z,6.25
2023-02-27T08:12:45.772Z,7.40
2023-02-27T08:14:19.123Z,7.00
2023-02-27T08:15:50.919Z,6.43
2023-02-27T08:17:22.747Z,6.03
2023-02-27T08:18:54.485Z,7.47
2023-02-27T08:20:26.340Z,6.65
2023-02-27T08:21:59.880Z,6.00
2023-02-27T08:23:32.005Z,6.60
2023-02-27T08:25:05.791Z,5.93
2023-02-27T08:26:37.725Z,6.00
2023-02-27T08:28:09.475Z,5.60
2023-02-27T08:29:43.429Z,5.90
2023-02-27T08:31:15.375Z,6.10
2023-02-27T08:32:48.451Z,6.05
2023-02-27T08:34:20.294Z,6.35
2023-02-27T08:35:54.460Z,6.25
2023-02-27T08:37:26.243Z,6.93
2023-02-27T08:38:58.052Z,6.07
2023-02-27T08:40:29.854Z,10.13
2023-02-27T08:42:01.673Z,6.30
2023-02-27T08:43:33.574Z,6.57
2023-02-27T08:45:08.790Z,6.30
2023-02-27T08:46:40.546Z,6.50
2023-02-27T08:48:14.236Z,6.32
2023-02-27T08:49:45.953Z,7.10
2023-02-27T08:51:17.776Z,6.85
2023-02-27T08:52:49.539Z,7.07
2023-02-27T08:54:21.526Z,6.78
2023-02-27T08:55:53.529Z,6.63
2023-02-27T08:57:25.329Z,6.07
2023-02-27T08:58:57.212Z,6.35
2023-02-27T09:00:32.677Z,5.65
2023-02-27T09:02:04.810Z,5.80
2023-02-27T09:03:37.384Z,5.78
2023-02-27T09:05:09.653Z,5.82
2023-02-27T09:06:41.427Z,6.30
2023-02-27T09:08:13.160Z,5.88
2023-02-27T09:09:45.200Z,5.82
2023-02-27T09:11:17.276Z,5.75
2023-02-27T09:12:49.403Z,6.25
2023-02-27T09:14:21.287Z,6.15
2023-02-27T09:15:54.652Z,6.55
2023-02-27T09:17:26.585Z,6.47
2023-02-27T09:19:00.203Z,7.78
2023-02-27T09:20:32.121Z,6.60
2023-02-27T09:22:07.312Z,8.10
2023-02-27T09:23:39.432Z,7.60
2023-02-27T09:25:11.184Z,7.32
2023-02-27T09:26:46.339Z,8.60
2023-02-27T09:28:18.673Z,6.90
2023-02-27T09:29:55.475Z,7.80
2023-02-27T09:31:32.901Z,7.57
2023-02-27T09:33:05.156Z,6.75
2023-02-27T09:34:37.025Z,7.10
2023-02-27T09:36:09.038Z,7.50
2023-02-27T09:37:40.900Z,7.30
2023-02-27T09:39:12.767Z,6.60
2023-02-27T09:40:44.590Z,7.43
2023-02-27T09:42:19.311Z,7.07
2023-02-27T09:43:51.067Z,7.65
2023-02-27T09:45:24.661Z,8.07
2023-02-27T09:46:57.949Z,7.80
2023-02-27T09:48:30.598Z,7.63
2023-02-27T09:50:03.317Z,7.78
2023-02-27T09:51:35.137Z,7.82
2023-02-27T09:53:09.640Z,7.82
2023-02-27T09:54:43.683Z,7.85
2023-02-27T09:56:20.164Z,7.22
2023-02-27T09:57:56.330Z,8.35
2023-02-27T09:59:31.791Z,7.45
2023-02-27T10:01:05.787Z,7.07
2023-02-27T10:02:45.006Z,6.18
2023-02-27T10:04:30.491Z,7.28
2023-02-27T10:06:20.945Z,8.18
2023-02-27T10:07:56.121Z,7.07
2023-02-27T10:09:35.799Z,6.57
2023-02-27T10:11:08.364Z,6.60
2023-02-27T10:13:08.957Z,6.57
2023-02-27T10:14:42.951Z,6.45
2023-02-27T10:16:20.876Z,6.53
2023-02-27T10:17:56.127Z,7.00
2023-02-27T10:19:30.640Z,6.45
2023-02-27T10:21:07.042Z,6.05
2023-02-27T10:22:41.406Z,6.30
2023-02-27T10:24:17.650Z,5.97
2023-02-27T10:25:50.334Z,5.75
2023-02-27T10:27:22.275Z,5.57
2023-02-27T10:28:54.063Z,5.95
2023-02-27T10:30:34.939Z,6.07
2023-02-27T10:32:08.054Z,5.88
2023-02-27T10:33:42.175Z,5.47
2023-02-27T10:35:21.325Z,6.03
2023-02-27T10:36:53.447Z,5.93
2023-02-27T10:38:29.448Z,5.70
2023-02-27T10:40:04.059Z,5.50
2023-02-27T10:41:36.142Z,5.70
2023-02-27T10:43:07.952Z,5.32
2023-02-27T10:44:39.729Z,5.97
2023-02-27T10:46:13.820Z,5.68
2023-02-27T10:47:45.993Z,6.00
2023-02-27T10:49:19.994Z,5.32
2023-02-27T10:50:52.336Z,5.57
2023-02-27T10:52:24.284Z,5.80
2023-02-27T10:54:14.320Z,5.70
2023-02-27T10:55:48.277Z,5.90
2023-02-27T10:57:23.706Z,5.82
2023-02-27T10:59:05.715Z,5.82
2023-02-27T11:00:44.220Z,5.22
2023-02-27T11:02:21.739Z,5.72
2023-02-27T11:03:55.519Z,5.80
2023-02-27T11:05:29.832Z,7.50
2023-02-27T11:07:06.683Z,10.50
2023-02-27T11:08:38.729Z,6.68
2023-02-27T11:10:17.313Z,5.80
2023-02-27T11:11:52.299Z,5.80
2023-02-27T11:13:28.028Z,5.40
2023-02-27T11:15:03.699Z,5.30
2023-02-27T11:16:45.470Z,5.88
2023-02-27T11:18:21.786Z,5.45
2023-02-27T11:19:55.598Z,5.32
2023-02-27T11:21:32.372Z,6.18
2023-02-27T11:23:05.067Z,5.78
2023-02-27T11:24:37.076Z,5.97
2023-02-27T11:26:19.822Z,5.70
2023-02-27T11:27:54.465Z,5.30
2023-02-27T11:29:30.038Z,5.07
2023-02-27T11:31:03.827Z,5.75
2023-02-27T11:32:37.230Z,5.40
2023-02-27T11:34:18.350Z,6.03
2023-02-27T11:35:50.959Z,5.80
2023-02-27T11:37:31.432Z,5.25
2023-02-27T11:39:03.219Z,6.00
2023-02-27T11:40:37.031Z,6.03
2023-02-27T11:42:17.286Z,6.00
2023-02-27T11:43:50.390Z,5.68
2023-02-27T11:46:04.387Z,5.85
2023-02-27T11:47:27.601Z,5.80
2023-02-27T11:49:03.189Z,5.55
2023-02-27T11:50:41.009Z,5.88
2023-02-27T11:52:13.417Z,6.28
2023-02-27T11:53:58.048Z,5.82
2023-02-27T11:55:32.627Z,5.88
2023-02-27T11:57:09.014Z,9.20
2023-02-27T11:58:53.157Z,5.95
2023-02-27T12:00:29.619Z,6.13
2023-02-27T12:02:03.520Z,6.18
2023-02-27T12:03:43.011Z,6.53
2023-02-27T12:05:26.529Z,6.18
2023-02-27T12:07:01.556Z,6.38
2023-02-27T12:08:36.321Z,5.82
2023-02-27T12:10:20.976Z,6.10
2023-02-27T12:11:53.339Z,6.45
2023-02-27T12:13:26.104Z,6.45
2023-02-27T12:15:02.934Z,6.65
2023-02-27T12:16:37.636Z,6.35
2023-02-27T12:18:15.412Z,9.85
2023-02-27T12:20:09.812Z,6.88
2023-02-27T12:21:42.584Z,5.78
2023-02-27T12:23:17.404Z,5.72
2023-02-27T12:24:51.442Z,7.30
2023-02-27T12:26:27.024Z,6.45
2023-02-27T12:29:51.022Z,6.43
2023-02-27T12:31:45.363Z,6.88
2023-02-27T12:33:20.117Z,7.28
2023-02-27T12:34:52.977Z,6.43
2023-02-27T12:36:24.841Z,6.43
2023-02-27T12:37:56.772Z,6.28
2023-02-27T12:39:31.715Z,6.28
2023-02-27T12:41:12.793Z,6.55
2023-02-27T12:43:02.297Z,7.00
2023-02-27T12:44:46.334Z,6.80
2023-02-27T12:46:36.963Z,7.38
2023-02-27T12:48:20.750Z,6.72
2023-02-27T12:49:56.508Z,6.72
2023-02-27T12:51:43.432Z,7.32
2023-02-27T12:53:25.596Z,7.45
2023-02-27T12:55:01.652Z,7.63
2023-02-27T12:56:42.339Z,8.68
2023-02-27T12:58:52.852Z,9.18
2023-02-27T13:00:26.477Z,9.05
2023-02-27T13:02:09.752Z,15.20
2023-02-27T13:03:48.899Z,13.32
2023-02-27T13:05:41.332Z,12.05
2023-02-27T13:07:25.110Z,9.15
2023-02-27T13:09:05.803Z,9.32
2023-02-27T13:10:42.323Z,9.25
2023-02-27T13:12:32.505Z,8.65
2023-02-27T13:14:07.365Z,8.48
2023-02-27T13:15:46.973Z,9.10
2023-02-27T13:17:26.328Z,8.88
2023-02-27T13:19:01.406Z,8.70
2023-02-27T13:20:36.226Z,8.60
2023-02-27T13:22:12.729Z,8.43
2023-02-27T13:23:50.139Z,8.05
2023-02-27T13:25:26.553Z,8.38
2023-02-27T13:27:08.057Z,8.07
2023-02-27T13:28:53.671Z,8.05
2023-02-27T13:30:38.145Z,8.30
2023-02-27T13:32:21.634Z,7.60
2023-02-27T13:35:16.633Z,8.07
2023-02-27T13:36:54.344Z,7.88
2023-02-27T13:38:34.630Z,7.55
2023-02-27T13:40:35.873Z,8.10
2023-02-27T13:42:53.142Z,8.23
2023-02-27T13:44:41.039Z,7.57
2023-02-27T13:46:30.992Z,7.90
2023-02-27T13:48:25.031Z,7.72
2023-02-27T13:50:03.873Z,7.13
2023-02-27T13:51:49.660Z,7.43
2023-02-27T13:53:32.838Z,7.90
2023-02-27T13:55:23.717Z,7.68
2023-02-27T13:57:36.377Z,7.15
2023-02-27T13:59:20.258Z,7.10
2023-02-27T14:01:27.967Z,7.68
2023-02-27T14:03:10.440Z,7.57
2023-02-27T14:04:48.382Z,7.78
2023-02-27T14:06:20.675Z,7.50
2023-02-27T14:08:00.999Z,7.95
2023-02-27T14:09:35.057Z,7.45
2023-02-27T14:11:16.418Z,7.80
2023-02-27T14:12:48.239Z,7.65
2023-02-27T14:14:46.304Z,7.70
2023-02-27T14:16:54.919Z,7.20
2023-02-27T14:18:51.810Z,7.38
2023-02-27T14:20:50.553Z,7.28
2023-02-27T14:22:37.300Z,7.53
2023-02-27T14:24:11.518Z,7.13
2023-02-27T14:25:45.181Z,6.82
2023-02-27T14:27:19.014Z,7.22
2023-02-27T14:28:55.555Z,7.18
2023-02-27T14:30:33.067Z,7.03
2023-02-27T14:32:06.964Z,6.80
2023-02-27T14:33:41.423Z,7.38
2023-02-27T14:35:16.559Z,7.03
2023-02-27T14:36:50.140Z,6.75
2023-02-27T14:38:21.925Z,7.45
2023-02-27T14:39:54.415Z,7.80
2023-02-27T14:41:38.207Z,8.48
2023-02-27T14:43:15.109Z,7.45
2023-02-27T14:44:47.283Z,7.30
2023-02-27T14:46:23.636Z,7.07
2023-02-27T14:47:55.318Z,6.40
2023-02-27T14:49:28.738Z,7.07
2023-02-27T14:51:01.777Z,6.60
2023-02-27T14:52:40.851Z,6.40
2023-02-27T14:54:13.960Z,6.05
2023-02-27T14:55:45.721Z,5.88
2023-02-27T14:57:18.276Z,6.60
2023-02-27T14:59:03.341Z,5.90
2023-02-27T15:00:37.268Z,6.25
2023-02-27T15:02:15.983Z,6.28
2023-02-27T15:03:48.548Z,6.22
2023-02-27T15:05:21.410Z,6.18
2023-02-27T15:06:54.833Z,6.18
2023-02-27T15:08:28.026Z,6.00
2023-02-27T15:10:01.624Z,5.78
2023-02-27T15:11:34.365Z,5.20
2023-02-27T15:13:06.238Z,5.45
2023-02-27T15:14:39.402Z,6.65
2023-02-27T15:16:26.399Z,10.18
2023-02-27T15:18:03.699Z,5.85
2023-02-27T15:19:39.646Z,16.23
2023-02-27T15:21:31.866Z,8.75
2023-02-27T15:23:21.339Z,5.68
2023-02-27T15:24:57.610Z,5.85
2023-02-27T15:26:30.994Z,5.60
2023-02-27T15:28:03.612Z,5.90
2023-02-27T15:29:36.458Z,5.47
2023-02-27T15:31:09.570Z,5.40
2023-02-27T15:32:41.940Z,5.30
2023-02-27T15:34:14.101Z,5.72
2023-02-27T15:35:45.995Z,5.47
2023-02-27T15:37:19.890Z,5.63
2023-02-27T15:39:05.974Z,5.72
2023-02-27T15:40:37.895Z,6.03
2023-02-27T15:42:09.841Z,5.40
2023-02-27T15:43:41.680Z,5.43
2023-02-27T15:45:17.369Z,5.80
2023-02-27T15:46:49.119Z,5.55
2023-02-27T15:48:20.978Z,5.50
2023-02-27T15:49:55.126Z,5.28
2023-02-27T15:51:27.099Z,5.00
2023-02-27T15:53:00.648Z,5.65
2023-02-27T15:54:34.437Z,5.75
2023-02-27T15:56:09.529Z,5.50
2023-02-27T15:57:47.476Z,5.80
2023-02-27T15:59:25.399Z,6.22
2023-02-27T16:01:00.786Z,6.03
2023-02-27T16:02:36.951Z,6.55
2023-02-27T16:04:20.555Z,6.60
2023-02-27T16:05:53.229Z,5.72
2023-02-27T16:07:25.496Z,6.32
2023-02-27T16:08:58.544Z,6.40
2023-02-27T16:10:36.752Z,6.78
2023-02-27T16:12:30.714Z,6.88
2023-02-27T16:14:02.948Z,6.13
2023-02-27T16:15:36.371Z,24.52
2023-02-27T16:17:26.120Z,12.95
2023-02-27T16:18:58.415Z,8.55
2023-02-27T16:20:41.010Z,8.73
2023-02-27T16:22:14.339Z,7.30
2023-02-27T16:23:46.224Z,9.50
2023-02-27T16:25:19.061Z,7.25
2023-02-27T16:26:52.980Z,6.30
2023-02-27T16:28:26.971Z,9.85
2023-02-27T16:30:03.178Z,9.00
2023-02-27T16:31:36.188Z,6.90
2023-02-27T16:33:21.138Z,6.35
2023-02-27T16:35:00.507Z,6.03
2023-02-27T16:38:18.051Z,6.28
2023-02-27T16:39:56.194Z,6.15
2023-02-27T16:41:30.486Z,9.23
2023-02-27T16:43:10.997Z,10.27
2023-02-27T16:44:45.307Z,10.20
2023-02-27T16:46:21.180Z,13.40
2023-02-27T16:48:04.389Z,7.80
2023-02-27T16:49:41.329Z,7.32
2023-02-27T16:51:16.826Z,10.20
2023-02-27T16:53:08.146Z,8.75
2023-02-27T16:54:39.969Z,8.77
2023-02-27T16:56:23.719Z,5.35
2023-02-27T16:58:00.980Z,6.45
2023-02-27T16:59:43.021Z,5.68
2023-02-27T17:01:19.822Z,6.57
2023-02-27T17:02:52.958Z,6.80
2023-02-27T17:04:26.241Z,6.20
2023-02-27T17:06:03.129Z,5.53
2023-02-27T17:07:35.218Z,5.40
2023-02-27T17:09:09.109Z,5.07
2023-02-27T17:10:44.019Z,5.38
2023-02-27T17:12:39.321Z,4.88
2023-02-27T17:14:11.283Z,5.85
2023-02-27T17:16:38.839Z,5.20
2023-02-27T17:18:17.410Z,4.57
2023-02-27T17:19:51.568Z,4.95
2023-02-27T17:21:23.635Z,4.97
2023-02-27T17:22:57.660Z,4.88
2023-02-27T17:24:31.610Z,5.28
2023-02-27T17:26:04.485Z,5.20
2023-02-27T17:27:42.449Z,4.80
2023-02-27T17:29:20.880Z,4.88
2023-02-27T17:32:52.363Z,13.25
2023-02-27T17:34:24.092Z,5.93
2023-02-27T17:36:02.040Z,5.53
2023-02-27T17:37:34.361Z,5.30
2023-02-27T17:39:06.371Z,5.10
2023-02-27T17:40:41.139Z,5.50
2023-02-27T17:42:16.561Z,5.10
2023-02-27T17:43:50.229Z,5.30
2023-02-27T17:45:24.715Z,5.10
2023-02-27T17:47:00.117Z,5.05
2023-02-27T17:48:31.782Z,5.43
2023-02-27T17:50:04.223Z,5.68
2023-02-27T17:51:39.194Z,5.57
2023-02-27T17:53:12.932Z,4.97
2023-02-27T17:54:48.976Z,6.00
2023-02-27T17:56:26.673Z,5.88
2023-02-27T17:57:58.803Z,5.50
2023-02-27T17:59:31.698Z,5.80
2023-02-27T18:01:06.668Z,6.65
2023-02-27T18:02:43.414Z,6.20
2023-02-27T18:04:16.241Z,6.30
2023-02-27T18:05:49.217Z,8.55
2023-02-27T18:07:21.054Z,7.78
2023-02-27T18:08:52.783Z,7.45
2023-02-27T18:10:24.459Z,6.45
2023-02-27T18:11:56.370Z,6.28
2023-02-27T18:13:31.188Z,6.18
2023-02-27T18:15:03.305Z,6.45
2023-02-27T18:16:35.478Z,6.43
2023-02-27T18:18:08.507Z,6.05
2023-02-27T18:19:40.340Z,6.13
2023-02-27T18:21:13.025Z,6.22
2023-02-27T18:22:44.756Z,5.90
2023-02-27T18:24:16.595Z,6.10
2023-02-27T18:25:53.641Z,6.30
2023-02-27T18:27:27.115Z,6.50
2023-02-27T18:29:01.537Z,6.47
2023-02-27T18:30:36.759Z,6.00
2023-02-27T18:32:08.692Z,6.10
2023-02-27T18:33:41.901Z,6.10
2023-02-27T18:35:13.664Z,6.22
2023-02-27T18:36:45.418Z,5.85
2023-02-27T18:38:17.220Z,5.85
2023-02-27T18:39:49.081Z,6.40
2023-02-27T18:41:20.729Z,6.43
2023-02-27T18:42:52.615Z,7.18
2023-02-27T18:44:36.986Z,10.57
2023-02-27T18:46:20.785Z,11.70
2023-02-27T18:47:55.242Z,9.07
2023-02-27T18:49:28.478Z,6.63
2023-02-27T18:51:07.243Z,7.03
2023-02-27T18:52:39.154Z,6.20
2023-02-27T18:54:16.734Z,6.07
2023-02-27T18:55:51.396Z,6.50
2023-02-27T18:57:28.981Z,6.47
2023-02-27T18:59:05.845Z,6.93
2023-02-27T19:00:41.404Z,6.95
2023-02-27T19:02:17.362Z,6.32
2023-02-27T19:04:02.406Z,6.95
2023-02-27T19:05:41.392Z,6.05
2023-02-27T19:07:13.571Z,6.43
2023-02-27T19:08:46.051Z,6.30
2023-02-27T19:10:18.180Z,6.47
2023-02-27T19:11:57.540Z,6.03
2023-02-27T19:13:37.123Z,6.72
2023-02-27T19:15:10.906Z,6.30
2023-02-27T19:16:44.329Z,6.43
2023-02-27T19:18:16.427Z,6.07
2023-02-27T19:19:52.657Z,5.88
2023-02-27T19:21:26.056Z,6.00
2023-02-27T19:23:06.095Z,6.07
2023-02-27T19:24:38.015Z,6.47
2023-02-27T19:26:14.173Z,6.20
2023-02-27T19:27:56.831Z,6.50
2023-02-27T19:29:44.770Z,6.57
2023-02-27T19:31:27.329Z,5.95
2023-02-27T19:33:01.944Z,5.68
2023-02-27T19:34:41.876Z,5.80
2023-02-27T19:36:24.470Z,5.53
2023-02-27T19:38:16.048Z,6.30
2023-02-27T19:41:54.583Z,5.95
2023-02-27T19:48:39.213Z,5.88
2023-02-27T19:51:56.832Z,5.72
2023-02-27T19:53:31.489Z,6.13
2023-02-27T19:55:42.003Z,5.40
2023-02-27T19:57:37.818Z,5.90
2023-02-27T19:59:12.022Z,5.85
2023-02-27T20:00:43.992Z,5.72
2023-02-27T20:02:17.284Z,5.68
2023-02-27T20:03:55.316Z,5.53
2023-02-27T20:05:27.164Z,5.72
2023-02-27T20:06:58.911Z,6.28
2023-02-27T20:08:33.292Z,5.78
2023-02-27T20:10:05.811Z,5.60
2023-02-27T20:11:37.545Z,6.22
2023-02-27T20:13:09.338Z,5.82
2023-02-27T20:14:47.709Z,5.60
2023-02-27T20:16:32.863Z,5.72
2023-02-27T20:18:13.986Z,6.60
2023-02-27T20:19:45.802Z,5.95
2023-02-27T20:23:24.811Z,6.05
2023-02-27T20:29:09.736Z,10.05
2023-02-27T20:31:19.064Z,9.95
2023-02-27T20:45:00.972Z,6.05
2023-02-27T20:54:40.903Z,6.30
2023-02-27T20:59:12.812Z,7.78
2023-02-27T21:08:13.494Z,7.10
2023-02-27T21:10:00.281Z,7.18
2023-02-27T21:12:17.452Z,6.72
2023-02-27T21:14:15.357Z,7.07
2023-02-27T21:16:33.544Z,6.78
2023-02-27T21:18:54.888Z,6.72
2023-02-27T21:20:49.722Z,6.53
2023-02-27T21:22:39.820Z,7.97
2023-02-27T21:24:52.475Z,6.97
2023-02-27T21:28:56.464Z,7.25
2023-02-27T21:32:13.362Z,7.55
2023-02-27T21:33:45.545Z,7.50
2023-02-27T21:35:30.077Z,7.35
2023-02-27T21:37:03.053Z,7.75
2023-02-27T21:38:35.149Z,7.88
2023-02-27T21:40:07.768Z,7.43
2023-02-27T21:41:39.826Z,7.68
2023-02-27T21:43:21.346Z,7.65
2023-02-27T21:44:55.232Z,7.10
2023-02-27T21:46:27.212Z,7.90
2023-02-27T21:48:00.258Z,7.57
2023-02-27T21:49:36.249Z,7.82
2023-02-27T21:51:07.941Z,7.68
2023-02-27T21:52:44.940Z,7.70
2023-02-27T21:54:16.808Z,7.45
2023-02-27T21:55:48.491Z,7.93
2023-02-27T21:57:21.689Z,7.70
2023-02-27T21:58:53.585Z,7.88
2023-02-27T22:00:27.664Z,7.78
2023-02-27T22:02:08.013Z,9.18
2023-02-27T22:03:41.251Z,8.80
2023-02-27T22:05:12.954Z,7.95
2023-02-27T22:06:44.701Z,8.30
2023-02-27T22:08:16.475Z,8.32
2023-02-27T22:09:49.979Z,8.10
2023-02-27T22:11:21.810Z,8.48
2023-02-27T22:12:53.936Z,8.75
2023-02-27T22:14:26.223Z,8.27
2023-02-27T22:16:02.537Z,8.13
2023-02-27T22:17:34.287Z,8.32
2023-02-27T22:19:11.058Z,8.60
2023-02-27T22:20:42.900Z,8.82
2023-02-27T22:22:14.670Z,8.70
2023-02-27T22:23:46.550Z,8.73
2023-02-27T22:25:21.149Z,8.40
2023-02-27T22:26:52.835Z,8.32
2023-02-27T22:28:24.680Z,8.82
2023-02-27T22:29:59.112Z,9.00
2023-02-27T22:31:32.290Z,9.18
2023-02-27T22:33:04.239Z,8.40
2023-02-27T22:34:37.282Z,8.82
2023-02-27T22:36:10.128Z,8.63
2023-02-27T22:37:41.852Z,9.07
2023-02-27T22:39:13.561Z,8.77